createdAt,value
2018-04-29T00:01:13.463Z,70.63
2018-04-29T00:03:45.185Z,71.46
2018-04-29T00:06:13.835Z,71.76
2018-04-29T00:08:45.612Z,71.62
2018-04-29T00:11:14.632Z,72.09
2018-04-29T00:13:43.259Z,72.37
2018-04-29T00:16:11.901Z,72.86
2018-04-29T00:18:40.539Z,72.99
2018-04-29T00:21:11.451Z,70.73
2018-04-29T00:23:40.445Z,72.16
2018-04-29T00:26:09.097Z,72.67
2018-04-29T00:28:37.737Z,72.83
2018-04-29T00:31:06.357Z,72.51
2018-04-29T00:33:35.889Z,72.09
2018-04-29T00:36:07.740Z,72.89
2018-04-29T00:38:38.382Z,73.77
2018-04-29T00:41:07.188Z,74.31
2018-04-29T00:43:36.985Z,74.20
2018-04-29T00:46:08.426Z,74.48
2018-04-29T00:48:40.881Z,74.03
2018-04-29T00:51:10.499Z,74.13
2018-04-29T00:53:49.279Z,74.15
2018-04-29T00:56:17.939Z,74.17
2018-04-29T00:58:47.511Z,74.09
2018-04-29T01:01:17.113Z,73.53
2018-04-29T01:03:45.749Z,73.00
2018-04-29T01:06:14.409Z,72.76
2018-04-29T01:08:43.053Z,72.64
2018-04-29T01:11:12.367Z,70.26
2018-04-29T01:13:42.724Z,71.09
2018-04-29T01:16:11.380Z,71.80
2018-04-29T01:18:40.472Z,71.70
2018-04-29T01:21:11.775Z,73.37
2018-04-29T01:23:42.841Z,74.03
2018-04-29T01:26:11.484Z,74.27
2018-04-29T01:28:40.106Z,72.54
2018-04-29T01:31:08.763Z,71.49
2018-04-29T01:33:38.450Z,72.51
2018-04-29T01:36:07.099Z,73.87
2018-04-29T01:38:35.732Z,74.28
2018-04-29T01:41:04.383Z,74.70
2018-04-29T01:43:33.902Z,72.27
2018-04-29T01:46:13.641Z,73.24
2018-04-29T01:48:42.649Z,70.92
2018-04-29T01:51:11.267Z,72.07
2018-04-29T01:53:39.926Z,72.19
2018-04-29T01:56:08.562Z,72.38
2018-04-29T01:58:37.420Z,69.96
2018-04-29T02:01:06.033Z,71.56
2018-04-29T02:03:35.594Z,71.96
2018-04-29T02:06:04.205Z,73.23
2018-04-29T02:08:34.886Z,70.50
2018-04-29T02:11:03.984Z,72.28
2018-04-29T02:13:32.623Z,72.99
2018-04-29T02:16:03.413Z,73.01
2018-04-29T02:18:34.175Z,73.09
2018-04-29T02:21:02.806Z,73.31
2018-04-29T02:23:31.472Z,73.00
2018-04-29T02:26:02.947Z,72.75
2018-04-29T02:28:29.726Z,73.54
2018-04-29T02:30:58.790Z,73.61
2018-04-29T02:33:30.166Z,73.51
2018-04-29T02:36:06.197Z,73.06
2018-04-29T02:38:34.818Z,72.80
2018-04-29T02:41:03.482Z,73.24
2018-04-29T02:43:35.402Z,74.07
2018-04-29T02:46:04.626Z,74.24
2018-04-29T02:48:35.774Z,74.49
2018-04-29T02:51:04.435Z,74.28
2018-04-29T02:53:35.592Z,73.72
2018-04-29T02:56:04.227Z,73.87
2018-04-29T02:58:32.828Z,73.84
2018-04-29T03:01:01.452Z,74.04
2018-04-29T03:03:30.094Z,73.92
2018-04-29T03:05:58.721Z,73.79
2018-04-29T03:08:27.362Z,73.91
2018-04-29T03:10:56.000Z,73.78
2018-04-29T03:13:24.663Z,73.71
2018-04-29T03:15:55.603Z,73.69
2018-04-29T03:18:24.240Z,74.08
2018-04-29T03:20:52.872Z,74.14
2018-04-29T03:23:22.424Z,74.12
2018-04-29T03:25:51.032Z,75.08
2018-04-29T03:28:19.690Z,75.56
2018-04-29T03:30:48.300Z,75.33
2018-04-29T03:33:22.457Z,74.96
2018-04-29T03:35:48.263Z,74.65
2018-04-29T03:38:16.871Z,74.51
2018-04-29T03:40:45.521Z,74.18
2018-04-29T03:43:14.200Z,74.03
2018-04-29T03:45:42.851Z,74.21
2018-04-29T03:48:11.509Z,74.26
2018-04-29T03:50:40.148Z,72.80
2018-04-29T03:53:08.806Z,73.84
2018-04-29T03:55:37.434Z,73.63
2018-04-29T03:58:43.026Z,73.62
2018-04-29T04:01:51.287Z,71.85
2018-04-29T04:04:17.221Z,74.57
2018-04-29T04:06:45.863Z,75.16
2018-04-29T04:09:14.483Z,75.06
2018-04-29T04:11:43.145Z,72.36
2018-04-29T04:14:11.748Z,74.22
2018-04-29T04:16:40.391Z,75.62
2018-04-29T04:19:09.016Z,75.51
2018-04-29T04:21:37.712Z,76.04
2018-04-29T04:24:06.330Z,76.61
2018-04-29T04:26:34.973Z,76.06
2018-04-29T04:29:03.596Z,75.64
2018-04-29T04:31:32.262Z,75.37
2018-04-29T04:34:00.912Z,73.01
2018-04-29T04:36:29.536Z,74.37
2018-04-29T04:38:58.186Z,74.80
2018-04-29T04:41:27.807Z,75.67
2018-04-29T04:43:58.632Z,76.05
2018-04-29T04:46:27.272Z,76.40
2018-04-29T04:48:58.164Z,76.41
2018-04-29T04:51:26.768Z,76.65
2018-04-29T04:53:55.410Z,76.89
2018-04-29T04:56:24.030Z,77.56
2018-04-29T04:58:52.672Z,77.56
2018-04-29T05:01:21.297Z,77.37
2018-04-29T05:03:49.945Z,77.17
2018-04-29T05:06:18.612Z,76.04
2018-04-29T05:08:47.270Z,73.95
2018-04-29T05:11:18.270Z,72.86
2018-04-29T05:13:46.916Z,74.59
2018-04-29T05:16:17.584Z,75.14
2018-04-29T05:18:46.213Z,75.46
2018-04-29T05:21:14.820Z,75.76
2018-04-29T05:23:43.566Z,75.65
2018-04-29T05:26:12.200Z,76.21
2018-04-29T05:28:40.814Z,76.44
2018-04-29T05:31:09.477Z,73.88
2018-04-29T05:33:38.097Z,75.47
2018-04-29T05:36:06.773Z,75.89
2018-04-29T05:38:35.397Z,75.87
2018-04-29T05:41:04.084Z,76.69
2018-04-29T05:43:32.711Z,76.95
2018-04-29T05:46:19.282Z,76.74
2018-04-29T05:48:47.906Z,76.70
2018-04-29T05:51:16.866Z,76.59
2018-04-29T05:53:45.519Z,76.40
2018-04-29T05:56:14.648Z,76.46
2018-04-29T05:58:43.262Z,76.22
2018-04-29T06:01:11.877Z,75.55
2018-04-29T06:03:40.559Z,75.49
2018-04-29T06:06:09.211Z,74.81
2018-04-29T06:08:37.854Z,74.81
2018-04-29T06:11:06.469Z,75.39
2018-04-29T06:13:35.118Z,75.90
2018-04-29T06:16:03.734Z,75.83
2018-04-29T06:18:32.405Z,75.63
2018-04-29T06:21:01.055Z,74.57
2018-04-29T06:23:29.707Z,74.26
2018-04-29T06:25:58.911Z,73.41
2018-04-29T06:28:29.907Z,69.16
2018-04-29T06:30:58.615Z,70.80
2018-04-29T06:33:27.920Z,71.74
2018-04-29T06:35:56.783Z,71.43
2018-04-29T06:38:25.400Z,64.93
2018-04-29T06:40:54.039Z,68.23
2018-04-29T06:43:27.473Z,69.17
2018-04-29T06:45:56.131Z,69.60
2018-04-29T06:48:25.582Z,69.90
2018-04-29T06:50:54.234Z,70.24
2018-04-29T06:53:22.837Z,65.91
2018-04-29T06:55:51.809Z,68.28
2018-04-29T06:58:22.347Z,68.64
2018-04-29T07:00:59.820Z,68.48
2018-04-29T07:03:28.422Z,68.61
2018-04-29T07:05:57.048Z,68.04
2018-04-29T07:08:25.658Z,66.88
2018-04-29T07:10:54.260Z,66.30
2018-04-29T07:13:22.907Z,65.32
2018-04-29T07:15:51.527Z,64.59
2018-04-29T07:18:20.168Z,63.38
2018-04-29T07:20:48.782Z,63.43
2018-04-29T07:23:17.428Z,61.15
2018-04-29T07:25:46.037Z,61.72
2018-04-29T07:28:14.704Z,62.00
2018-04-29T07:30:43.457Z,62.42
2018-04-29T07:33:12.107Z,61.14
2018-04-29T07:35:50.848Z,61.05
2018-04-29T07:38:19.508Z,60.98
2018-04-29T07:40:48.124Z,61.45
2018-04-29T07:43:16.760Z,59.81
2018-04-29T07:45:45.376Z,60.05
2018-04-29T07:48:14.472Z,60.63
2018-04-29T07:50:43.328Z,58.72
2018-04-29T07:53:11.931Z,56.09
2018-04-29T07:55:40.790Z,55.88
2018-04-29T07:58:09.412Z,57.06
2018-04-29T08:00:39.057Z,51.03
2018-04-29T08:03:13.357Z,55.04
2018-04-29T08:05:40.514Z,55.38
2018-04-29T08:08:09.473Z,55.32
2018-04-29T08:10:38.145Z,55.36
2018-04-29T08:13:07.125Z,54.66
2018-04-29T08:15:35.810Z,53.57
2018-04-29T08:18:06.591Z,49.54
2018-04-29T08:20:33.483Z,50.36
2018-04-29T08:23:02.204Z,52.50
2018-04-29T08:25:33.392Z,46.97
2018-04-29T08:27:59.408Z,50.16
2018-04-29T08:30:28.857Z,50.83
2018-04-29T08:32:57.850Z,51.19
2018-04-29T08:35:27.186Z,51.11
2018-04-29T08:37:56.584Z,51.68
2018-04-29T08:40:28.838Z,52.00
2018-04-29T08:42:58.093Z,51.84
2018-04-29T08:45:26.793Z,51.76
2018-04-29T08:47:57.287Z,47.87
2018-04-29T08:50:25.883Z,50.70
2018-04-29T08:52:54.701Z,49.79
2018-04-29T08:55:23.288Z,50.05
2018-04-29T08:57:52.129Z,50.37
2018-04-29T09:00:21.680Z,49.73
2018-04-29T09:02:57.856Z,49.07
2018-04-29T09:05:19.930Z,42.08
2018-04-29T09:07:50.145Z,44.96
2018-04-29T09:10:29.159Z,45.87
2018-04-29T09:13:00.237Z,46.38
2018-04-29T09:15:31.405Z,45.68
2018-04-29T09:17:59.499Z,45.10
2018-04-29T09:20:28.165Z,44.22
2018-04-29T09:23:01.314Z,45.13
2018-04-29T09:25:31.962Z,44.86
2018-04-29T09:28:03.551Z,44.94
2018-04-29T09:30:33.465Z,45.21
2018-04-29T09:33:03.897Z,43.47
2018-04-29T09:35:33.021Z,43.88
2018-04-29T09:38:01.887Z,44.24
2018-04-29T09:40:32.579Z,44.06
2018-04-29T09:43:01.473Z,42.69
2018-04-29T09:45:33.173Z,42.26
2018-04-29T09:48:06.564Z,42.71
2018-04-29T09:50:35.207Z,41.83
2018-04-29T09:53:03.827Z,42.10
2018-04-29T09:55:32.447Z,42.00
2018-04-29T09:58:02.135Z,41.61
2018-04-29T10:00:31.904Z,42.46
2018-04-29T10:03:10.293Z,42.79
2018-04-29T10:05:38.992Z,42.91
2018-04-29T10:08:10.291Z,42.66
2018-04-29T10:10:38.916Z,41.57
2018-04-29T10:13:08.421Z,40.54
2018-04-29T10:15:38.338Z,41.61
2018-04-29T10:18:07.320Z,42.04
2018-04-29T10:20:35.930Z,41.53
2018-04-29T10:23:04.576Z,41.17
2018-04-29T10:25:33.378Z,41.84
2018-04-29T10:28:02.627Z,41.31
2018-04-29T10:30:32.024Z,41.23
2018-04-29T10:33:09.566Z,39.61
2018-04-29T10:35:36.614Z,40.87
2018-04-29T10:38:05.754Z,41.87
2018-04-29T10:40:37.110Z,36.79
2018-04-29T10:43:05.955Z,39.82
2018-04-29T10:45:34.594Z,40.61
2018-04-29T10:48:05.625Z,42.08
2018-04-29T10:50:34.638Z,36.73
2018-04-29T10:53:03.346Z,39.89
2018-04-29T10:55:32.307Z,39.59
2018-04-29T10:58:02.530Z,39.51
2018-04-29T11:00:31.156Z,41.11
2018-04-29T11:03:01.778Z,39.50
2018-04-29T11:05:30.413Z,35.03
2018-04-29T11:08:01.871Z,37.99
2018-04-29T11:10:31.735Z,39.76
2018-04-29T11:13:00.559Z,39.92
2018-04-29T11:15:29.218Z,39.52
2018-04-29T11:17:57.865Z,39.44
2018-04-29T11:20:26.927Z,38.70
2018-04-29T11:22:55.554Z,39.88
2018-04-29T11:25:25.321Z,39.02
2018-04-29T11:28:06.807Z,39.29
2018-04-29T11:30:42.903Z,39.99
2018-04-29T11:33:11.695Z,38.54
2018-04-29T11:35:40.398Z,38.14
2018-04-29T11:38:13.349Z,37.84
2018-04-29T11:40:42.523Z,39.39
2018-04-29T11:43:11.155Z,39.80
2018-04-29T11:45:42.556Z,35.57
2018-04-29T11:48:12.442Z,37.06
2018-04-29T11:50:41.155Z,37.97
2018-04-29T11:53:10.025Z,37.43
2018-04-29T11:55:39.209Z,36.72
2018-04-29T11:58:07.839Z,37.00
2018-04-29T12:00:40.205Z,36.60
2018-04-29T12:03:09.187Z,37.33
2018-04-29T12:05:38.464Z,36.79
2018-04-29T12:08:10.100Z,37.53
2018-04-29T12:10:38.940Z,37.21
2018-04-29T12:13:07.559Z,36.83
2018-04-29T12:15:36.264Z,38.17
2018-04-29T12:18:05.852Z,37.92
2018-04-29T12:20:34.626Z,36.40
2018-04-29T12:23:09.857Z,35.83
2018-04-29T12:28:23.492Z,35.81
2018-04-29T12:30:59.121Z,35.53
2018-04-29T12:33:45.146Z,35.48
2018-04-29T12:36:13.711Z,35.99
2018-04-29T12:38:48.556Z,35.37
2018-04-29T12:41:17.570Z,34.86
2018-04-29T12:43:46.187Z,36.91
2018-04-29T12:46:19.261Z,35.66
2018-04-29T12:48:47.912Z,35.77
2018-04-29T12:51:18.936Z,34.95
2018-04-29T12:53:47.611Z,37.09
2018-04-29T12:56:17.187Z,36.94
2018-04-29T12:58:49.941Z,37.24
2018-04-29T13:01:20.090Z,36.86
2018-04-29T13:03:49.341Z,36.90
2018-04-29T13:06:18.247Z,36.77
2018-04-29T13:08:51.464Z,36.16
2018-04-29T13:11:24.620Z,34.48
2018-04-29T13:13:57.643Z,34.77
2018-04-29T13:16:26.350Z,35.66
2018-04-29T13:18:56.393Z,36.18
2018-04-29T13:21:25.022Z,34.68
2018-04-29T13:24:02.668Z,34.21
2018-04-29T13:26:33.279Z,36.01
2018-04-29T13:29:02.037Z,37.06
2018-04-29T13:31:31.874Z,34.94
2018-04-29T13:34:04.725Z,33.20
2018-04-29T13:36:36.381Z,35.90
2018-04-29T13:39:05.518Z,30.26
2018-04-29T13:41:34.933Z,32.27
2018-04-29T13:44:05.389Z,33.91
2018-04-29T13:46:36.987Z,30.53
2018-04-29T13:49:07.134Z,31.19
2018-04-29T13:51:36.210Z,30.46
2018-04-29T13:54:06.260Z,31.30
2018-04-29T13:56:36.164Z,31.29
2018-04-29T13:59:04.719Z,32.40
2018-04-29T14:01:39.934Z,34.83
2018-04-29T14:04:09.020Z,34.48
2018-04-29T14:06:38.768Z,34.68
2018-04-29T14:09:07.377Z,34.51
2018-04-29T14:11:36.096Z,35.86
2018-04-29T14:14:04.694Z,35.83
2018-04-29T14:16:34.472Z,34.68
2018-04-29T14:19:06.962Z,32.28
2018-04-29T14:21:41.399Z,31.58
2018-04-29T14:24:11.739Z,33.10
2018-04-29T14:26:40.384Z,34.69
2018-04-29T14:29:30.229Z,34.01
2018-04-29T14:32:01.781Z,34.33
2018-04-29T14:34:35.471Z,31.77
2018-04-29T14:37:05.937Z,33.96
2018-04-29T14:39:34.594Z,34.77
2018-04-29T14:42:03.205Z,33.77
2018-04-29T14:44:33.960Z,34.76
2018-04-29T14:47:04.354Z,31.53
2018-04-29T14:49:35.395Z,33.59
2018-04-29T14:52:11.600Z,33.51
2018-04-29T14:54:40.627Z,34.16
2018-04-29T14:57:11.119Z,33.29
2018-04-29T14:59:39.741Z,33.26
2018-04-29T15:02:08.536Z,33.87
2018-04-29T15:04:37.227Z,33.64
2018-04-29T15:07:09.352Z,30.90
2018-04-29T15:09:38.171Z,30.73
2018-04-29T15:12:07.028Z,29.08
2018-04-29T15:14:35.912Z,28.14
2018-04-29T15:17:06.685Z,29.30
2018-04-29T15:19:55.219Z,29.39
2018-04-29T15:22:23.912Z,29.71
2018-04-29T15:24:52.606Z,28.98
2018-04-29T15:27:22.811Z,30.06
2018-04-29T15:29:51.874Z,31.57
2018-04-29T15:32:21.596Z,32.54
2018-04-29T15:34:53.236Z,32.40
2018-04-29T15:37:27.039Z,31.56
2018-04-29T15:39:55.673Z,32.19
2018-04-29T15:42:24.652Z,31.69
2018-04-29T15:44:53.821Z,32.29
2018-04-29T15:47:23.945Z,31.70
2018-04-29T15:49:53.190Z,30.27
2018-04-29T15:52:23.853Z,27.35
2018-04-29T15:54:53.130Z,29.51
2018-04-29T15:57:22.066Z,29.54
2018-04-29T15:59:50.651Z,29.33
2018-04-29T16:02:19.268Z,29.02
2018-04-29T16:04:47.927Z,29.11
2018-04-29T16:07:16.757Z,25.32
2018-04-29T16:09:45.369Z,27.67
2018-04-29T16:12:16.284Z,23.75
2018-04-29T16:14:44.887Z,26.42
2018-04-29T16:17:14.538Z,27.08
2018-04-29T16:19:43.175Z,27.77
2018-04-29T16:22:11.815Z,27.49
2018-04-29T16:24:41.007Z,27.69
2018-04-29T16:27:09.624Z,27.78
2018-04-29T16:29:38.271Z,28.00
2018-04-29T16:32:06.885Z,24.15
2018-04-29T16:34:40.074Z,26.90
2018-04-29T16:37:08.733Z,24.89
2018-04-29T16:39:37.601Z,27.07
2018-04-29T16:42:06.337Z,27.17
2018-04-29T16:44:34.979Z,27.04
2018-04-29T16:47:05.050Z,23.85
2018-04-29T16:49:33.970Z,25.53
2018-04-29T16:52:03.301Z,24.26
2018-04-29T16:54:31.985Z,26.41
2018-04-29T16:57:00.640Z,27.61
2018-04-29T16:59:29.306Z,29.63
2018-04-29T17:01:57.901Z,31.47
2018-04-29T17:04:29.077Z,32.10
2018-04-29T17:06:56.321Z,32.77
2018-04-29T17:09:27.191Z,33.09
2018-04-29T17:11:55.771Z,33.15
2018-04-29T17:14:41.578Z,33.58
2018-04-29T17:17:12.070Z,33.48
2018-04-29T17:19:40.694Z,33.46
2018-04-29T17:22:09.295Z,32.99
2018-04-29T17:24:37.951Z,32.72
2018-04-29T17:27:06.608Z,32.13
2018-04-29T17:29:35.227Z,31.62
2018-04-29T17:32:03.890Z,28.35
2018-04-29T17:34:32.488Z,31.47
2018-04-29T17:37:01.129Z,32.81
2018-04-29T17:39:29.729Z,33.61
2018-04-29T17:42:05.971Z,34.08
2018-04-29T17:44:34.582Z,34.99
2018-04-29T17:47:03.261Z,35.59
2018-04-29T17:49:32.826Z,36.57
2018-04-29T17:52:02.189Z,37.11
2018-04-29T17:54:33.858Z,37.68
2018-04-29T17:57:03.562Z,38.40
2018-04-29T17:59:33.127Z,39.71
2018-04-29T18:02:02.155Z,41.64
2018-04-29T18:04:30.786Z,42.53
2018-04-29T18:06:59.823Z,43.47
2018-04-29T18:09:30.463Z,44.19
2018-04-29T18:12:00.415Z,45.63
2018-04-29T18:14:31.278Z,46.88
2018-04-29T18:16:59.968Z,44.44
2018-04-29T18:19:28.569Z,46.73
2018-04-29T18:21:57.223Z,47.86
2018-04-29T18:24:26.987Z,48.03
2018-04-29T18:26:55.621Z,48.96
2018-04-29T18:29:24.208Z,49.60
2018-04-29T18:31:53.074Z,49.73
2018-04-29T18:34:21.919Z,49.81
2018-04-29T18:36:51.145Z,47.75
2018-04-29T18:39:23.400Z,50.23
2018-04-29T18:41:52.144Z,50.72
2018-04-29T18:44:21.006Z,50.41
2018-04-29T18:46:49.973Z,51.26
2018-04-29T18:49:19.071Z,51.09
2018-04-29T18:51:48.680Z,51.07
2018-04-29T18:54:18.115Z,51.69
2018-04-29T18:56:47.294Z,52.30
2018-04-29T19:02:03.695Z,53.75
2018-04-29T19:04:34.620Z,51.61
2018-04-29T19:07:03.358Z,53.85
2018-04-29T19:09:32.307Z,54.32
2018-04-29T19:12:00.906Z,53.96
2018-04-29T19:14:29.551Z,54.36
2018-04-29T19:16:58.163Z,54.00
2018-04-29T19:19:26.784Z,53.92
2018-04-29T19:21:55.392Z,54.39
2018-04-29T19:24:24.064Z,53.83
2018-04-29T19:26:52.666Z,54.41
2018-04-29T19:29:21.301Z,53.82
2018-04-29T19:31:49.926Z,53.80
2018-04-29T19:34:18.602Z,54.07
2018-04-29T19:36:52.857Z,54.16
2018-04-29T19:39:23.184Z,52.56
2018-04-29T19:41:52.506Z,53.84
2018-04-29T19:44:23.809Z,54.01
2018-04-29T19:46:52.598Z,54.20
2018-04-29T19:49:23.135Z,54.39
2018-04-29T19:51:56.228Z,54.89
2018-04-29T19:54:22.872Z,55.25
2018-04-29T19:56:51.522Z,55.34
2018-04-29T19:59:20.455Z,55.66
2018-04-29T20:01:49.139Z,54.33
2018-04-29T20:04:17.682Z,55.72
2018-04-29T20:06:46.341Z,55.96
2018-04-29T20:09:15.079Z,54.77
2018-04-29T20:11:43.773Z,56.56
2018-04-29T20:14:12.377Z,56.86
2018-04-29T20:16:40.996Z,57.03
2018-04-29T20:19:09.829Z,57.31
2018-04-29T20:21:38.453Z,57.49
2018-04-29T20:24:07.110Z,57.72
2018-04-29T20:26:37.557Z,57.97
2018-04-29T20:29:06.569Z,58.09
2018-04-29T20:31:35.858Z,56.43
2018-04-29T20:34:04.512Z,57.72
2018-04-29T20:36:33.114Z,58.01
2018-04-29T20:39:01.775Z,58.36
2018-04-29T20:41:30.416Z,58.25
2018-04-29T20:43:59.064Z,58.17
2018-04-29T20:46:27.656Z,58.49
2018-04-29T20:48:56.282Z,58.56
2018-04-29T20:51:24.888Z,58.63
2018-04-29T20:53:53.524Z,58.31
2018-04-29T20:56:22.121Z,58.94
2018-04-29T20:58:50.753Z,58.69
2018-04-29T21:01:19.338Z,57.03
2018-04-29T21:03:47.973Z,58.58
2018-04-29T21:06:16.652Z,58.74
2018-04-29T21:08:45.282Z,59.31
2018-04-29T21:11:13.881Z,59.83
2018-04-29T21:13:42.554Z,59.49
2018-04-29T21:16:11.123Z,59.87
2018-04-29T21:18:39.730Z,59.49
2018-04-29T21:21:08.353Z,59.49
2018-04-29T21:23:36.941Z,60.48
2018-04-29T21:26:06.670Z,60.21
2018-04-29T21:28:35.318Z,60.18
2018-04-29T21:31:04.222Z,60.27
2018-04-29T21:33:32.821Z,60.23
2018-04-29T21:36:03.439Z,61.27
2018-04-29T21:38:32.063Z,61.48
2018-04-29T21:41:02.709Z,61.00
2018-04-29T21:43:31.309Z,60.89
2018-04-29T21:46:00.912Z,60.69
2018-04-29T21:48:29.758Z,60.92
2018-04-29T21:50:58.396Z,60.95
2018-04-29T21:53:28.465Z,61.37
2018-04-29T21:55:57.123Z,61.07
2018-04-29T22:01:26.239Z,61.46
2018-04-29T22:03:57.150Z,59.67
2018-04-29T22:06:38.559Z,61.10
2018-04-29T22:09:11.399Z,61.37
2018-04-29T22:17:24.124Z,61.86
2018-04-29T22:19:53.069Z,60.19
2018-04-29T22:22:22.064Z,61.51
2018-04-29T22:24:50.660Z,62.00
2018-04-29T22:27:19.294Z,62.68
2018-04-29T22:29:47.902Z,62.30
2018-04-29T22:32:16.584Z,62.55
2018-04-29T22:34:45.135Z,62.57
2018-04-29T22:37:13.853Z,60.87
2018-04-29T22:39:42.372Z,60.12
2018-04-29T22:42:11.000Z,61.98
2018-04-29T22:44:39.632Z,62.38
2018-04-29T22:47:08.221Z,62.58
2018-04-29T22:49:36.853Z,62.68
2018-04-29T22:52:05.439Z,62.96
2018-04-29T22:54:34.074Z,63.08
2018-04-29T22:57:02.690Z,63.19
2018-04-29T22:59:31.319Z,63.48
2018-04-29T23:01:59.914Z,61.85
2018-04-29T23:04:28.570Z,63.48
2018-04-29T23:06:57.172Z,61.62
2018-04-29T23:09:25.803Z,63.49
2018-04-29T23:11:54.416Z,64.02
2018-04-29T23:14:25.720Z,61.90
2018-04-29T23:16:51.700Z,61.63
2018-04-29T23:19:20.285Z,63.52
2018-04-29T23:21:48.879Z,64.04
2018-04-29T23:24:17.516Z,64.37
2018-04-29T23:26:46.109Z,64.54
2018-04-29T23:29:14.750Z,62.76
2018-04-29T23:31:43.350Z,62.38
2018-04-29T23:34:11.984Z,64.51
2018-04-29T23:36:40.629Z,64.96
2018-04-29T23:39:09.226Z,65.20
2018-04-29T23:41:37.872Z,65.33
2018-04-29T23:44:06.503Z,65.72
2018-04-29T23:46:35.161Z,65.81
2018-04-29T23:49:03.781Z,63.95
2018-04-29T23:51:32.447Z,65.45
2018-04-29T23:54:03.311Z,65.98
2018-04-29T23:56:31.963Z,66.27
2018-04-29T23:59:00.569Z,66.50
